Terminal Aerodrome Forecast
Issued by NWS Lake Charles, LA

Home | Current Version | Previous Version | Text Only | Print | Product List | Glossary On
Versions: 1 2 3 4 5 6 7 8 9 10 11 12 13 14 15 16 17 18 19 20
000
FTUS44 KLCH 220500
TAFAEX
TAF
KAEX 220520Z 2206/2306 16006KT 2SM BR OVC002
      TEMPO 2206/2210 1/4SM FG VV001
     FM221000 00000KT 1/4SM FG VV001
      TEMPO 2215/2216 3SM BR OVC008
     FM221600 20012G20KT P6SM OVC025
     FM230000 23006KT P6SM OVC025=

USA.gov is the U.S. government's official web portal to all federal, state and local government web resources and services.